createdAt,value
2023-04-03T00:00:20.990Z,228.21
2023-04-03T00:01:20.961Z,228.59
2023-04-03T00:02:21.058Z,230.22
2023-04-03T00:03:21.081Z,229.37
2023-04-03T00:04:20.968Z,227.40
2023-04-03T00:05:20.961Z,225.10
2023-04-03T00:06:20.956Z,218.91
2023-04-03T00:07:20.940Z,218.51
2023-04-03T00:08:20.947Z,218.57
2023-04-03T00:09:20.906Z,216.89
2023-04-03T00:10:20.927Z,218.37
2023-04-03T00:11:21.614Z,218.31
2023-04-03T00:12:20.887Z,221.10
2023-04-03T00:13:20.900Z,220.37
2023-04-03T00:14:20.927Z,220.81
2023-04-03T00:15:20.895Z,219.43
2023-04-03T00:16:20.908Z,214.66
2023-04-03T00:17:20.915Z,213.94
2023-04-03T00:18:20.932Z,212.38
2023-04-03T00:19:20.930Z,213.58
2023-04-03T00:20:20.901Z,213.14
2023-04-03T00:21:20.915Z,211.86
2023-04-03T00:22:20.919Z,211.21
2023-04-03T00:23:20.913Z,207.58
2023-04-03T00:24:20.900Z,203.60
2023-04-03T00:25:20.921Z,203.29
2023-04-03T00:26:20.921Z,202.05
2023-04-03T00:27:20.923Z,199.84
2023-04-03T00:28:20.923Z,204.49
2023-04-03T00:29:20.923Z,206.95
2023-04-03T00:30:20.929Z,207.54
2023-04-03T00:31:20.950Z,209.32
2023-04-03T00:32:20.900Z,210.25
2023-04-03T00:33:20.909Z,205.20
2023-04-03T00:34:20.897Z,204.12
2023-04-03T00:35:20.888Z,199.83
2023-04-03T00:36:21.001Z,199.97
2023-04-03T00:37:20.923Z,198.97
2023-04-03T00:38:20.951Z,198.73
2023-04-03T00:39:20.894Z,198.85
2023-04-03T00:40:20.906Z,198.70
2023-04-03T00:41:20.884Z,197.94
2023-04-03T00:42:20.858Z,199.21
2023-04-03T00:43:20.855Z,198.23
2023-04-03T00:44:20.877Z,196.87
2023-04-03T00:45:20.888Z,195.70
2023-04-03T00:46:20.914Z,197.22
2023-04-03T00:47:20.878Z,200.26
2023-04-03T00:48:20.894Z,203.51
2023-04-03T00:49:20.880Z,204.14
2023-04-03T00:50:20.911Z,206.03
2023-04-03T00:51:20.934Z,205.54
2023-04-03T00:52:20.896Z,202.20
2023-04-03T00:53:20.917Z,204.69
2023-04-03T00:54:20.902Z,204.27
2023-04-03T00:55:20.923Z,200.88
2023-04-03T00:56:20.933Z,200.67
2023-04-03T00:57:20.959Z,201.41
2023-04-03T00:58:20.914Z,201.60
2023-04-03T00:59:20.935Z,205.41
2023-04-03T01:00:20.958Z,203.86
2023-04-03T01:01:21.053Z,206.42
2023-04-03T01:02:20.931Z,203.65
2023-04-03T01:03:20.939Z,199.20
2023-04-03T01:04:20.977Z,197.50
2023-04-03T01:05:20.966Z,196.03
2023-04-03T01:06:20.964Z,199.26
2023-04-03T01:07:20.945Z,200.35
2023-04-03T01:08:20.962Z,199.44
2023-04-03T01:09:20.959Z,200.94
2023-04-03T01:10:20.969Z,205.39
2023-04-03T01:11:20.963Z,205.43
2023-04-03T01:12:20.941Z,204.07
2023-04-03T01:13:20.947Z,201.97
2023-04-03T01:14:20.924Z,201.91
2023-04-03T01:15:20.918Z,201.32
2023-04-03T01:16:20.989Z,199.93
2023-04-03T01:17:20.924Z,201.84
2023-04-03T01:18:20.918Z,199.96
2023-04-03T01:19:20.908Z,196.81
2023-04-03T01:20:20.923Z,196.11
2023-04-03T01:21:20.896Z,196.09
2023-04-03T01:22:20.881Z,193.15
2023-04-03T01:23:20.896Z,190.00
2023-04-03T01:24:20.886Z,194.37
2023-04-03T01:25:20.894Z,193.52
2023-04-03T01:26:20.889Z,195.32
2023-04-03T01:27:20.854Z,192.76
2023-04-03T01:28:20.860Z,187.43
2023-04-03T01:29:20.914Z,184.33
2023-04-03T01:30:20.900Z,188.47
2023-04-03T01:31:20.878Z,188.69
2023-04-03T01:32:20.856Z,194.08
2023-04-03T01:33:20.872Z,194.73
2023-04-03T01:34:20.851Z,195.29
2023-04-03T01:35:20.879Z,198.67
2023-04-03T01:36:20.815Z,190.34
2023-04-03T01:37:20.826Z,187.77
2023-04-03T01:38:20.839Z,180.29
2023-04-03T01:39:20.848Z,181.69
2023-04-03T01:40:20.834Z,182.26
2023-04-03T01:41:20.829Z,181.98
2023-04-03T01:42:20.839Z,181.92
2023-04-03T01:43:20.820Z,180.38
2023-04-03T01:44:20.836Z,182.76
2023-04-03T01:45:20.810Z,182.18
2023-04-03T01:46:20.868Z,184.91
2023-04-03T01:47:20.833Z,186.18
2023-04-03T01:48:20.807Z,188.91
2023-04-03T01:49:20.828Z,191.16
2023-04-03T01:50:20.844Z,202.04
2023-04-03T01:51:20.835Z,211.57
2023-04-03T01:52:20.793Z,219.09
2023-04-03T01:53:20.831Z,224.11
2023-04-03T01:54:20.806Z,232.50
2023-04-03T01:55:20.812Z,246.87
2023-04-03T01:56:20.840Z,242.25
2023-04-03T01:57:20.860Z,237.66
2023-04-03T01:58:20.793Z,236.80
2023-04-03T01:59:20.818Z,232.39
2023-04-03T02:00:20.818Z,236.38
2023-04-03T02:01:20.943Z,236.58
2023-04-03T02:02:20.826Z,236.38
2023-04-03T02:03:20.826Z,239.24
2023-04-03T02:04:20.860Z,238.55
2023-04-03T02:05:20.899Z,241.62
2023-04-03T02:06:20.886Z,241.90
2023-04-03T02:07:20.870Z,246.79
2023-04-03T02:08:20.903Z,247.57
2023-04-03T02:09:20.910Z,248.72
2023-04-03T02:10:20.904Z,242.17
2023-04-03T02:11:20.951Z,237.65
2023-04-03T02:12:20.956Z,237.30
2023-04-03T02:13:20.978Z,238.06
2023-04-03T02:14:21.001Z,240.60
2023-04-03T02:15:21.020Z,243.41
2023-04-03T02:16:21.044Z,242.45
2023-04-03T02:17:21.035Z,243.67
2023-04-03T02:18:21.064Z,243.34
2023-04-03T02:19:21.057Z,244.60
2023-04-03T02:20:21.072Z,246.41
2023-04-03T02:21:21.077Z,243.69
2023-04-03T02:22:21.058Z,243.85
2023-04-03T02:23:21.097Z,242.02
2023-04-03T02:24:21.085Z,244.04
2023-04-03T02:25:21.118Z,242.02
2023-04-03T02:26:21.130Z,246.53
2023-04-03T02:27:21.137Z,245.42
2023-04-03T02:28:21.165Z,248.83
2023-04-03T02:29:21.135Z,246.15
2023-04-03T02:30:21.203Z,248.34
2023-04-03T02:31:21.231Z,246.21
2023-04-03T02:32:21.219Z,245.52
2023-04-03T02:33:21.230Z,248.87
2023-04-03T02:34:21.216Z,247.84
2023-04-03T02:35:21.255Z,244.07
2023-04-03T02:36:21.247Z,242.77
2023-04-03T02:37:21.289Z,241.25
2023-04-03T02:38:21.817Z,240.86
2023-04-03T02:39:21.301Z,245.49
2023-04-03T02:40:21.311Z,243.97
2023-04-03T02:41:21.304Z,241.44
2023-04-03T02:42:21.310Z,242.53
2023-04-03T02:43:21.352Z,245.36
2023-04-03T02:44:21.329Z,244.23
2023-04-03T02:45:21.354Z,244.29
2023-04-03T02:46:21.398Z,243.11
2023-04-03T02:47:21.363Z,239.35
2023-04-03T02:48:21.392Z,234.52
2023-04-03T02:49:21.366Z,236.92
2023-04-03T02:50:21.401Z,236.53
2023-04-03T02:51:21.395Z,234.27
2023-04-03T02:52:21.384Z,234.12
2023-04-03T02:53:21.381Z,235.13
2023-04-03T02:54:21.361Z,236.20
2023-04-03T02:55:21.392Z,236.52
2023-04-03T02:56:21.400Z,232.01
2023-04-03T02:57:21.457Z,231.25
2023-04-03T02:58:21.437Z,226.87
2023-04-03T02:59:21.461Z,227.69
2023-04-03T03:00:21.434Z,226.09
2023-04-03T03:01:21.505Z,228.21
2023-04-03T03:02:21.446Z,229.78
2023-04-03T03:03:21.445Z,225.36
2023-04-03T03:04:21.483Z,223.36
2023-04-03T03:05:21.521Z,227.06
2023-04-03T03:06:21.476Z,229.39
2023-04-03T03:07:21.453Z,231.60
2023-04-03T03:08:21.515Z,228.40
2023-04-03T03:09:21.491Z,228.29
2023-04-03T03:10:21.468Z,225.94
2023-04-03T03:11:21.471Z,225.13
2023-04-03T03:12:21.497Z,226.70
2023-04-03T03:13:21.498Z,223.34
2023-04-03T03:14:21.481Z,222.41
2023-04-03T03:15:21.502Z,222.96
2023-04-03T03:16:21.546Z,226.28
2023-04-03T03:17:21.513Z,223.54
2023-04-03T03:18:21.482Z,229.55
2023-04-03T03:19:21.499Z,222.82
2023-04-03T03:20:21.481Z,218.98
2023-04-03T03:21:21.490Z,221.75
2023-04-03T03:22:21.478Z,213.61
2023-04-03T03:23:21.494Z,217.88
2023-04-03T03:24:21.485Z,219.09
2023-04-03T03:25:21.484Z,220.57
2023-04-03T03:26:21.474Z,222.30
2023-04-03T03:27:21.470Z,219.80
2023-04-03T03:28:21.440Z,220.01
2023-04-03T03:29:21.443Z,220.34
2023-04-03T03:30:21.476Z,217.83
2023-04-03T03:31:21.458Z,213.55
2023-04-03T03:32:21.507Z,215.87
2023-04-03T03:33:21.398Z,217.57
2023-04-03T03:34:21.397Z,215.48
2023-04-03T03:35:21.427Z,211.46
2023-04-03T03:36:21.438Z,211.63
2023-04-03T03:37:21.370Z,215.88
2023-04-03T03:38:21.396Z,216.05
2023-04-03T03:39:21.388Z,212.94
2023-04-03T03:40:21.386Z,213.54
2023-04-03T03:41:21.374Z,212.54
2023-04-03T03:42:21.355Z,212.79
2023-04-03T03:43:21.385Z,214.27
2023-04-03T03:44:21.358Z,211.10
2023-04-03T03:45:21.350Z,212.42
2023-04-03T03:46:21.420Z,213.93
2023-04-03T03:47:21.333Z,212.02
2023-04-03T03:48:21.332Z,210.82
2023-04-03T03:49:21.320Z,206.25
2023-04-03T03:50:21.305Z,200.98
2023-04-03T03:51:21.284Z,199.87
2023-04-03T03:52:21.299Z,205.37
2023-04-03T03:53:21.306Z,204.27
2023-04-03T03:54:21.267Z,202.42
2023-04-03T03:55:21.286Z,203.96
2023-04-03T03:56:21.249Z,203.64
2023-04-03T03:57:21.312Z,206.17
2023-04-03T03:58:21.281Z,206.46
2023-04-03T03:59:21.263Z,206.66
2023-04-03T04:00:21.273Z,202.62
2023-04-03T04:01:21.248Z,199.66
2023-04-03T04:02:21.350Z,202.66
2023-04-03T04:03:21.317Z,201.40
2023-04-03T04:04:21.283Z,204.73
2023-04-03T04:05:21.192Z,199.62
2023-04-03T04:06:21.180Z,206.04
2023-04-03T04:07:21.221Z,207.33
2023-04-03T04:08:21.176Z,206.13
2023-04-03T04:09:21.169Z,201.99
2023-04-03T04:10:21.132Z,200.59
2023-04-03T04:11:21.125Z,193.00
2023-04-03T04:12:21.125Z,196.29
2023-04-03T04:13:21.092Z,197.32
2023-04-03T04:14:21.074Z,199.40
2023-04-03T04:15:21.061Z,199.39
2023-04-03T04:16:21.060Z,205.66
2023-04-03T04:17:21.074Z,204.17
2023-04-03T04:18:21.029Z,204.85
2023-04-03T04:19:21.000Z,203.78
2023-04-03T04:20:20.998Z,203.27
2023-04-03T04:21:20.988Z,201.97
2023-04-03T04:22:20.983Z,204.30
2023-04-03T04:23:20.959Z,206.17
2023-04-03T04:24:20.951Z,203.11
2023-04-03T04:25:20.957Z,206.00
2023-04-03T04:26:20.954Z,205.19
2023-04-03T04:27:20.944Z,203.19
2023-04-03T04:28:20.875Z,208.73
2023-04-03T04:29:20.889Z,209.81
2023-04-03T04:30:20.870Z,202.82
2023-04-03T04:31:20.935Z,204.24
2023-04-03T04:32:20.835Z,202.00
2023-04-03T04:33:20.842Z,205.69
2023-04-03T04:34:20.840Z,205.60
2023-04-03T04:35:20.854Z,203.90
2023-04-03T04:36:21.076Z,202.47
2023-04-03T04:37:20.780Z,202.97
2023-04-03T04:38:20.798Z,196.74
2023-04-03T04:39:20.798Z,197.64
2023-04-03T04:40:20.754Z,202.77
2023-04-03T04:41:20.732Z,204.57
2023-04-03T04:42:20.755Z,203.06
2023-04-03T04:43:20.735Z,201.24
2023-04-03T04:44:20.733Z,200.95
2023-04-03T04:45:20.724Z,200.57
2023-04-03T04:46:20.768Z,201.42
2023-04-03T04:47:20.681Z,203.35
2023-04-03T04:48:20.680Z,195.69
2023-04-03T04:49:20.746Z,203.36
2023-04-03T04:50:21.409Z,203.09
2023-04-03T04:51:20.617Z,194.10
2023-04-03T04:52:20.586Z,200.72
2023-04-03T04:53:20.620Z,195.53
2023-04-03T04:54:20.585Z,202.78
2023-04-03T04:55:20.559Z,193.55
2023-04-03T04:56:20.563Z,194.95
2023-04-03T04:57:20.564Z,191.40
2023-04-03T04:58:20.548Z,188.72
2023-04-03T04:59:21.493Z,192.80
2023-04-03T05:00:20.558Z,192.13
2023-04-03T05:01:27.933Z,197.60
2023-04-03T05:02:20.502Z,197.72
2023-04-03T05:03:20.474Z,187.30
2023-04-03T05:04:20.489Z,189.84
2023-04-03T05:05:20.426Z,188.95
2023-04-03T05:06:20.360Z,193.44
2023-04-03T05:07:20.332Z,196.80
2023-04-03T05:08:20.344Z,189.98
2023-04-03T05:09:20.280Z,189.16
2023-04-03T05:10:20.273Z,188.80
2023-04-03T05:11:20.233Z,183.09
2023-04-03T05:12:20.201Z,177.39
2023-04-03T05:13:20.136Z,182.97
2023-04-03T05:14:20.129Z,181.89
2023-04-03T05:15:20.056Z,190.69
2023-04-03T05:16:20.075Z,187.42
2023-04-03T05:17:20.016Z,186.60
2023-04-03T05:18:19.939Z,188.48
2023-04-03T05:19:19.947Z,188.76
2023-04-03T05:20:19.909Z,194.63
2023-04-03T05:21:19.900Z,192.71
2023-04-03T05:22:19.833Z,189.38
2023-04-03T05:23:19.815Z,195.05
2023-04-03T05:24:19.750Z,184.88
2023-04-03T05:25:19.748Z,185.73
2023-04-03T05:26:19.720Z,185.69
2023-04-03T05:27:19.696Z,189.46
2023-04-03T05:28:19.634Z,183.58
2023-04-03T05:29:19.595Z,180.29
2023-04-03T05:30:19.561Z,188.17
2023-04-03T05:31:19.589Z,179.64
2023-04-03T05:32:19.552Z,172.81
2023-04-03T05:33:19.511Z,172.50
2023-04-03T05:34:19.485Z,175.74
2023-04-03T05:35:19.444Z,178.35
2023-04-03T05:36:19.456Z,180.02
2023-04-03T05:37:19.410Z,176.49
2023-04-03T05:38:19.433Z,180.64
2023-04-03T05:39:19.413Z,177.82
2023-04-03T05:40:19.409Z,173.98
2023-04-03T05:41:19.466Z,173.31
2023-04-03T05:42:19.446Z,175.15
2023-04-03T05:43:19.407Z,172.95
2023-04-03T05:44:19.408Z,170.94
2023-04-03T05:45:19.400Z,177.09
2023-04-03T05:46:26.486Z,182.26
2023-04-03T05:47:19.376Z,182.47
2023-04-03T05:48:19.362Z,179.04
2023-04-03T05:49:19.355Z,178.71
2023-04-03T05:50:19.308Z,183.25
2023-04-03T05:51:19.328Z,179.13
2023-04-03T05:52:19.255Z,176.25
2023-04-03T05:53:19.241Z,171.14
2023-04-03T05:54:19.207Z,172.10
2023-04-03T05:55:19.162Z,174.56
2023-04-03T05:56:19.144Z,179.00
2023-04-03T05:57:19.081Z,175.79
2023-04-03T05:58:19.045Z,174.23
2023-04-03T05:59:19.028Z,179.16
2023-04-03T06:00:19.015Z,171.72
2023-04-03T06:01:18.989Z,171.77
2023-04-03T06:02:18.932Z,166.78
2023-04-03T06:03:19.015Z,166.80
2023-04-03T06:04:19.017Z,171.55
2023-04-03T06:05:18.850Z,172.46
2023-04-03T06:06:18.810Z,173.04
2023-04-03T06:07:18.775Z,168.83
2023-04-03T06:08:18.720Z,165.22
2023-04-03T06:09:18.699Z,162.96
2023-04-03T06:10:18.654Z,165.30
2023-04-03T06:11:18.655Z,161.17
2023-04-03T06:12:18.617Z,168.34
2023-04-03T06:13:18.565Z,165.01
2023-04-03T06:14:18.558Z,169.66
2023-04-03T06:15:18.528Z,176.75
2023-04-03T06:16:18.485Z,165.97
2023-04-03T06:17:18.582Z,164.34
2023-04-03T06:18:18.444Z,160.59
2023-04-03T06:19:18.395Z,164.78
2023-04-03T06:20:18.374Z,161.86
2023-04-03T06:21:18.394Z,160.05
2023-04-03T06:22:18.448Z,164.66
2023-04-03T06:23:18.293Z,159.14
2023-04-03T06:24:18.235Z,169.49
2023-04-03T06:25:18.204Z,173.19
2023-04-03T06:26:18.195Z,164.04
2023-04-03T06:27:18.176Z,161.90
2023-04-03T06:28:18.136Z,167.09
2023-04-03T06:29:18.092Z,174.75
2023-04-03T06:30:18.976Z,169.14
2023-04-03T06:31:18.144Z,165.34
2023-04-03T06:32:18.093Z,172.48
2023-04-03T06:33:18.081Z,162.52
2023-04-03T06:34:18.215Z,166.76
2023-04-03T06:35:18.088Z,165.74
2023-04-03T06:36:18.091Z,164.77
2023-04-03T06:37:18.110Z,166.99
2023-04-03T06:38:18.093Z,168.17
2023-04-03T06:39:18.112Z,173.13
2023-04-03T06:40:18.141Z,176.20
2023-04-03T06:41:18.114Z,172.87
2023-04-03T06:42:18.142Z,175.54
2023-04-03T06:43:18.144Z,183.95
2023-04-03T06:44:18.142Z,182.36
2023-04-03T06:45:18.117Z,188.02
2023-04-03T06:46:18.164Z,185.04
2023-04-03T06:47:18.118Z,186.95
2023-04-03T06:48:18.088Z,187.20
2023-04-03T06:49:18.147Z,190.32
2023-04-03T06:50:18.114Z,185.81
2023-04-03T06:51:18.114Z,182.36
2023-04-03T06:52:18.120Z,186.55
2023-04-03T06:53:18.179Z,188.41
2023-04-03T06:54:18.149Z,190.68
2023-04-03T06:55:18.144Z,187.01
2023-04-03T06:56:18.124Z,192.71
2023-04-03T06:57:18.182Z,184.43
2023-04-03T06:58:18.508Z,190.38
2023-04-03T06:59:18.120Z,192.85
2023-04-03T07:00:18.161Z,187.76
2023-04-03T07:01:18.181Z,188.22
2023-04-03T07:02:18.119Z,193.14
2023-04-03T07:03:18.140Z,186.40
2023-04-03T07:04:18.186Z,186.38
2023-04-03T07:05:18.151Z,188.82
2023-04-03T07:06:18.147Z,187.68
2023-04-03T07:07:18.138Z,188.87
2023-04-03T07:08:18.170Z,190.98
2023-04-03T07:09:18.133Z,195.41
2023-04-03T07:10:18.148Z,190.62
2023-04-03T07:11:18.172Z,191.68
2023-04-03T07:12:18.161Z,187.27
2023-04-03T07:13:18.184Z,192.21
2023-04-03T07:14:18.184Z,189.53
2023-04-03T07:15:18.171Z,193.80
2023-04-03T07:16:18.299Z,190.60
2023-04-03T07:17:18.189Z,194.11
2023-04-03T07:18:18.208Z,188.34
2023-04-03T07:19:18.202Z,188.40
2023-04-03T07:20:18.190Z,193.46
2023-04-03T07:21:18.186Z,187.13
2023-04-03T07:22:18.194Z,192.37
2023-04-03T07:23:18.194Z,195.97
2023-04-03T07:24:18.225Z,192.40
2023-04-03T07:25:18.228Z,191.61
2023-04-03T07:26:18.239Z,198.08
2023-04-03T07:27:18.241Z,189.02
2023-04-03T07:28:18.208Z,190.10
2023-04-03T07:29:18.242Z,192.72
2023-04-03T07:30:18.237Z,187.58
2023-04-03T07:31:18.409Z,182.97
2023-04-03T07:32:18.291Z,184.14
2023-04-03T07:33:18.177Z,185.79
2023-04-03T07:34:18.216Z,187.92
2023-04-03T07:35:18.239Z,188.56
2023-04-03T07:36:18.229Z,190.50
2023-04-03T07:37:18.221Z,191.31
2023-04-03T07:38:18.216Z,186.92
2023-04-03T07:39:18.222Z,189.84
2023-04-03T07:40:19.650Z,194.23
2023-04-03T07:41:18.189Z,194.63
2023-04-03T07:42:18.166Z,195.24
2023-04-03T07:43:18.204Z,187.52
2023-04-03T07:44:18.166Z,188.71
2023-04-03T07:45:18.192Z,187.55
2023-04-03T07:46:18.263Z,188.44
2023-04-03T07:47:18.201Z,185.85
2023-04-03T07:48:18.222Z,187.51
2023-04-03T07:49:18.166Z,185.67
2023-04-03T07:50:18.156Z,190.22
2023-04-03T07:51:18.126Z,188.52
2023-04-03T07:52:18.172Z,185.93
2023-04-03T07:53:18.106Z,186.77
2023-04-03T07:54:18.102Z,191.86
2023-04-03T07:55:18.091Z,192.26
2023-04-03T07:56:18.099Z,185.50
2023-04-03T07:57:18.150Z,187.03
2023-04-03T07:58:18.109Z,190.12
2023-04-03T07:59:18.106Z,189.48
2023-04-03T08:00:18.104Z,190.61
2023-04-03T08:01:18.105Z,183.30
2023-04-03T08:02:18.074Z,182.43
2023-04-03T08:03:18.216Z,186.83
2023-04-03T08:04:18.129Z,187.73
2023-04-03T08:05:18.079Z,183.82
2023-04-03T08:06:21.683Z,188.03
2023-04-03T08:07:19.058Z,188.33
2023-04-03T08:08:19.926Z,188.75
2023-04-03T08:09:17.996Z,191.41
2023-04-03T08:10:17.943Z,190.52
2023-04-03T08:11:17.925Z,196.30
2023-04-03T08:12:17.927Z,195.95
2023-04-03T08:13:17.902Z,191.32
2023-04-03T08:14:18.196Z,194.39
2023-04-03T08:15:17.805Z,189.63
2023-04-03T08:16:17.855Z,191.18
2023-04-03T08:17:17.760Z,187.89
2023-04-03T08:18:17.748Z,188.31
2023-04-03T08:19:25.487Z,191.54
2023-04-03T08:20:19.487Z,191.74
2023-04-03T08:21:17.605Z,192.06
2023-04-03T08:22:17.564Z,193.25
2023-04-03T08:23:19.386Z,192.96
2023-04-03T08:24:17.598Z,190.57
2023-04-03T08:25:17.623Z,186.06
2023-04-03T08:26:17.599Z,183.58
2023-04-03T08:27:17.608Z,191.01
2023-04-03T08:28:17.610Z,192.37
2023-04-03T08:29:17.635Z,187.82
2023-04-03T08:30:17.642Z,188.45
2023-04-03T08:31:17.638Z,185.04
2023-04-03T08:32:17.614Z,184.59
2023-04-03T08:33:17.617Z,183.03
2023-04-03T08:34:17.598Z,181.15
2023-04-03T08:35:17.635Z,184.34
2023-04-03T08:36:17.649Z,187.55
2023-04-03T08:37:17.598Z,192.11
2023-04-03T08:38:17.584Z,184.89
2023-04-03T08:39:17.591Z,183.20
2023-04-03T08:40:17.620Z,183.75
2023-04-03T08:41:17.614Z,180.27
2023-04-03T08:42:17.579Z,179.31
2023-04-03T08:43:17.609Z,177.41
2023-04-03T08:44:17.601Z,176.71
2023-04-03T08:45:17.577Z,176.29
2023-04-03T08:46:17.716Z,180.54
2023-04-03T08:47:17.580Z,183.34
2023-04-03T08:48:17.560Z,181.41
2023-04-03T08:49:17.567Z,182.21
2023-04-03T08:50:17.542Z,178.54
2023-04-03T08:51:17.509Z,178.52
2023-04-03T08:52:17.602Z,177.66
2023-04-03T08:53:17.513Z,178.19
2023-04-03T08:54:17.516Z,177.79
2023-04-03T08:55:17.519Z,179.01
2023-04-03T08:56:17.494Z,179.62
2023-04-03T08:57:17.517Z,176.40
2023-04-03T08:58:17.483Z,174.33
2023-04-03T08:59:17.494Z,171.91
2023-04-03T09:00:17.476Z,176.20
2023-04-03T09:01:17.456Z,169.53
2023-04-03T09:02:17.444Z,159.45
2023-04-03T09:03:17.502Z,160.28
2023-04-03T09:04:17.456Z,160.84
2023-04-03T09:05:17.361Z,160.71
2023-04-03T09:06:17.382Z,161.15
2023-04-03T09:07:17.311Z,164.07
2023-04-03T09:08:17.422Z,162.81
2023-04-03T09:09:17.321Z,156.78
2023-04-03T09:10:17.298Z,159.63
2023-04-03T09:11:17.281Z,170.54
2023-04-03T09:12:17.272Z,174.54
2023-04-03T09:13:17.226Z,179.00
2023-04-03T09:14:17.204Z,176.66
2023-04-03T09:15:19.928Z,168.45
2023-04-03T09:16:18.224Z,168.72
2023-04-03T09:17:17.157Z,168.98
2023-04-03T09:18:17.086Z,170.07
2023-04-03T09:19:17.100Z,171.73
2023-04-03T09:20:18.264Z,171.42
2023-04-03T09:21:16.975Z,174.60
2023-04-03T09:22:16.920Z,165.88
2023-04-03T09:23:16.908Z,161.08
2023-04-03T09:24:17.052Z,158.18
2023-04-03T09:25:16.810Z,165.12
2023-04-03T09:26:16.767Z,165.95
2023-04-03T09:27:16.760Z,173.95
2023-04-03T09:28:16.705Z,166.99
2023-04-03T09:29:16.628Z,167.08
2023-04-03T09:30:16.639Z,171.53
2023-04-03T09:31:16.617Z,174.17
2023-04-03T09:32:16.552Z,174.91
2023-04-03T09:33:16.580Z,171.45
2023-04-03T09:34:16.457Z,171.46
2023-04-03T09:35:20.512Z,171.99
2023-04-03T09:36:17.400Z,172.38
2023-04-03T09:37:16.362Z,172.54
2023-04-03T09:38:16.334Z,173.75
2023-04-03T09:39:16.275Z,177.29
2023-04-03T09:40:16.315Z,179.58
2023-04-03T09:41:16.178Z,178.65
2023-04-03T09:42:17.048Z,178.35
2023-04-03T09:43:16.088Z,179.36
2023-04-03T09:44:16.068Z,175.77
2023-04-03T09:45:16.035Z,179.44
2023-04-03T09:46:16.068Z,175.50
2023-04-03T09:47:15.942Z,179.83
2023-04-03T09:48:16.692Z,178.92
2023-04-03T09:49:15.859Z,174.59
2023-04-03T09:50:15.795Z,180.06
2023-04-03T09:51:15.801Z,171.24
2023-04-03T09:52:15.753Z,171.05
2023-04-03T09:53:15.705Z,166.37
2023-04-03T09:54:15.718Z,161.61
2023-04-03T09:55:15.672Z,167.87
2023-04-03T09:56:15.849Z,166.15
2023-04-03T09:57:15.669Z,154.18
2023-04-03T09:58:15.632Z,157.29
2023-04-03T09:59:15.575Z,152.52
2023-04-03T10:00:15.586Z,149.43
2023-04-03T10:01:15.656Z,154.98
2023-04-03T10:02:15.605Z,158.18
2023-04-03T10:03:15.573Z,152.73
2023-04-03T10:04:15.637Z,150.84
2023-04-03T10:05:15.626Z,141.53
2023-04-03T10:06:15.594Z,137.41
2023-04-03T10:07:15.593Z,123.27
2023-04-03T10:08:15.612Z,135.13
2023-04-03T10:09:15.638Z,133.62
2023-04-03T10:10:15.649Z,133.80
2023-04-03T10:11:15.633Z,137.26
2023-04-03T10:12:15.685Z,133.59
2023-04-03T10:13:21.015Z,123.10
2023-04-03T10:14:16.560Z,123.13
2023-04-03T10:15:15.556Z,121.52
2023-04-03T10:16:15.527Z,116.43
2023-04-03T10:17:15.484Z,116.55
2023-04-03T10:18:24.440Z,107.84
2023-04-03T10:19:16.397Z,118.42
2023-04-03T10:20:15.328Z,113.05
2023-04-03T10:21:26.646Z,111.06
2023-04-03T10:22:16.235Z,121.59
2023-04-03T10:23:15.236Z,109.72
2023-04-03T10:24:15.173Z,106.74
2023-04-03T10:25:15.148Z,99.72
2023-04-03T10:26:15.118Z,102.32
2023-04-03T10:27:15.049Z,115.65
2023-04-03T10:28:15.080Z,116.70
2023-04-03T10:29:14.962Z,111.03
2023-04-03T10:30:14.938Z,109.76
2023-04-03T10:31:14.909Z,109.66
2023-04-03T10:32:14.816Z,94.29
2023-04-03T10:33:14.785Z,99.25
2023-04-03T10:34:14.748Z,92.54
2023-04-03T10:35:14.695Z,104.67
2023-04-03T10:36:14.672Z,97.15
2023-04-03T10:37:14.621Z,100.55
2023-04-03T10:38:14.591Z,96.85
2023-04-03T10:39:14.580Z,91.02
2023-04-03T10:40:14.554Z,94.36
2023-04-03T10:41:16.423Z,107.67
2023-04-03T10:42:17.573Z,117.89
2023-04-03T10:43:15.070Z,118.15
2023-04-03T10:44:14.531Z,113.66
2023-04-03T10:45:14.418Z,106.41
2023-04-03T10:46:14.380Z,105.48
2023-04-03T10:47:14.322Z,111.68
2023-04-03T10:48:14.360Z,97.69
2023-04-03T10:49:14.305Z,88.46
2023-04-03T10:50:14.267Z,83.76
2023-04-03T10:51:14.217Z,72.17
2023-04-03T10:52:14.161Z,78.10
2023-04-03T10:53:14.116Z,89.74
2023-04-03T10:54:14.135Z,76.51
2023-04-03T10:55:14.080Z,47.57
2023-04-03T10:56:14.039Z,74.85
2023-04-03T10:57:14.345Z,67.59
2023-04-03T10:58:14.558Z,79.01
2023-04-03T10:59:13.962Z,71.71
2023-04-03T11:00:14.009Z,63.94
2023-04-03T11:01:13.899Z,76.99
2023-04-03T11:02:13.816Z,84.17
2023-04-03T11:03:13.950Z,94.65
2023-04-03T11:04:13.828Z,60.89
2023-04-03T11:05:13.691Z,67.96
2023-04-03T11:06:13.695Z,53.57
2023-04-03T11:07:13.667Z,58.64
2023-04-03T11:08:13.659Z,65.79
2023-04-03T11:09:13.608Z,63.08
2023-04-03T11:10:14.628Z,38.75
2023-04-03T11:11:13.515Z,35.23
2023-04-03T11:12:13.489Z,41.87
2023-04-03T11:13:13.474Z,49.39
2023-04-03T11:14:13.412Z,51.85
2023-04-03T11:15:13.414Z,61.56
2023-04-03T11:16:13.522Z,79.96
2023-04-03T11:17:13.324Z,84.65
2023-04-03T11:18:13.358Z,85.99
2023-04-03T11:19:13.276Z,84.22
2023-04-03T11:20:13.242Z,83.42
2023-04-03T11:21:13.197Z,79.04
2023-04-03T11:22:13.132Z,77.64
2023-04-03T11:23:13.141Z,63.51
2023-04-03T11:24:13.143Z,57.91
2023-04-03T11:25:13.129Z,75.19
2023-04-03T11:26:13.129Z,75.30
2023-04-03T11:27:13.180Z,71.62
2023-04-03T11:28:13.130Z,66.61
2023-04-03T11:29:17.896Z,65.39
2023-04-03T11:30:14.189Z,62.16
2023-04-03T11:31:13.144Z,47.43
2023-04-03T11:32:13.147Z,43.79
2023-04-03T11:33:13.074Z,50.63
2023-04-03T11:34:12.992Z,24.72
2023-04-03T11:35:12.979Z,28.61
2023-04-03T11:36:24.925Z,38.24
2023-04-03T11:37:13.900Z,38.65
2023-04-03T11:38:12.853Z,40.43
2023-04-03T11:39:12.795Z,44.61
2023-04-03T11:40:12.790Z,55.23
2023-04-03T11:41:12.738Z,67.45
2023-04-03T11:42:13.259Z,72.09
2023-04-03T11:43:12.638Z,76.59
2023-04-03T11:44:12.621Z,81.89
2023-04-03T11:45:12.547Z,76.86
2023-04-03T11:46:12.624Z,68.47
2023-04-03T11:47:12.492Z,82.19
2023-04-03T11:48:23.751Z,65.57
2023-04-03T11:49:13.429Z,65.75
2023-04-03T11:50:12.378Z,66.08
2023-04-03T11:51:12.374Z,69.29
2023-04-03T11:52:12.330Z,62.62
2023-04-03T11:53:12.274Z,67.16
2023-04-03T11:54:12.240Z,98.55
2023-04-03T11:55:12.193Z,97.29
2023-04-03T11:56:12.168Z,87.72
2023-04-03T11:57:12.189Z,84.10
2023-04-03T11:58:12.086Z,56.52
2023-04-03T11:59:12.064Z,63.64
2023-04-03T12:00:12.068Z,67.08
2023-04-03T12:01:11.992Z,53.37
2023-04-03T12:02:11.946Z,55.31
2023-04-03T12:03:12.009Z,64.89
2023-04-03T12:04:12.062Z,63.63
2023-04-03T12:05:11.826Z,70.85
2023-04-03T12:06:11.825Z,67.18
2023-04-03T12:07:11.853Z,59.88
2023-04-03T12:08:11.816Z,38.58
2023-04-03T12:09:11.816Z,34.84
2023-04-03T12:10:15.500Z,54.32
2023-04-03T12:11:12.768Z,54.04
2023-04-03T12:12:11.732Z,42.79
2023-04-03T12:13:11.721Z,42.71
2023-04-03T12:14:11.666Z,35.47
2023-04-03T12:15:11.617Z,59.83
2023-04-03T12:16:11.598Z,54.41
2023-04-03T12:17:11.604Z,78.92
2023-04-03T12:18:11.523Z,78.99
2023-04-03T12:19:11.478Z,64.58
2023-04-03T12:20:11.550Z,71.98
2023-04-03T12:21:11.375Z,87.91
2023-04-03T12:22:11.365Z,87.48
2023-04-03T12:23:11.300Z,82.05
2023-04-03T12:24:11.281Z,66.92
2023-04-03T12:25:11.230Z,73.22
2023-04-03T12:26:11.210Z,70.82
2023-04-03T12:27:11.175Z,80.59
2023-04-03T12:28:11.164Z,82.09
2023-04-03T12:29:11.166Z,62.30
2023-04-03T12:30:11.172Z,82.64
2023-04-03T12:31:11.249Z,84.29
2023-04-03T12:32:11.164Z,55.62